Time;durP1;ratioP1;P1;durP2;ratioP2;P2;SDS_P1;SDS_P2;PMS_P1;PMS_P2;Temp;Humidity;BMP_temperature;BMP_pressure;BME280_temperature;BME280_humidity;BME280_pressure;Samples;Min_cycle;Max_cycle;Signal;HPM_P1;HPM_P2
2021/04/22 00:00:31;;;;;;;3.30;1.20;;;10.40;1.00;;;;;;5069418;28;20214;-56
2021/04/22 00:02:57;;;;;;;4.00;1.43;;;10.50;1.00;;;;;;5068474;28;20193;-57
2021/04/22 00:05:37;;;;;;;2.67;1.20;;;10.50;1.00;;;;;;5070982;28;20666;-57
2021/04/22 00:08:06;;;;;;;5.07;1.60;;;10.50;1.00;;;;;;5071245;28;20503;-56
2021/04/22 00:10:50;;;;;;;3.33;1.10;;;10.50;1.00;;;;;;5065210;28;20452;-56
2021/04/22 00:13:20;;;;;;;3.50;1.13;;;10.50;1.00;;;;;;5070085;28;20440;-57
2021/04/22 00:15:46;;;;;;;3.30;1.50;;;10.30;1.00;;;;;;5069958;28;20546;-56
2021/04/22 00:18:12;;;;;;;3.43;1.20;;;10.20;1.00;;;;;;5071187;28;20452;-56
2021/04/22 00:20:38;;;;;;;2.63;1.17;;;10.30;1.00;;;;;;5070464;28;20475;-56
2021/04/22 00:23:06;;;;;;;2.40;1.40;;;10.20;1.00;;;;;;5071100;28;20525;-56
2021/04/22 00:25:32;;;;;;;2.27;1.30;;;10.10;1.00;;;;;;5069865;28;20438;-57
2021/04/22 00:28:05;;;;;;;2.87;1.57;;;10.10;1.00;;;;;;5068713;28;20471;-56
2021/04/22 00:30:32;;;;;;;4.33;1.93;;;10.10;1.00;;;;;;5069107;28;20191;-57
2021/04/22 00:32:57;;;;;;;4.77;1.87;;;9.80;1.00;;;;;;5066394;28;20448;-57
2021/04/22 00:35:24;;;;;;;4.23;1.57;;;9.90;1.00;;;;;;5067912;28;21810;-55
2021/04/22 00:37:49;;;;;;;7.37;1.70;;;9.80;1.00;;;;;;5071063;28;20643;-56
2021/04/22 00:40:23;;;;;;;5.23;1.37;;;9.70;1.00;;;;;;5070355;28;20458;-56
2021/04/22 00:42:49;;;;;;;6.17;1.37;;;9.70;1.00;;;;;;5070831;28;20196;-56
2021/04/22 00:45:16;;;;;;;3.93;1.00;;;9.60;1.00;;;;;;5066344;28;20448;-55
2021/04/22 00:47:42;;;;;;;6.33;1.30;;;9.60;1.00;;;;;;5070359;28;20517;-56
2021/04/22 00:50:12;;;;;;;6.70;1.90;;;9.50;1.00;;;;;;5068665;28;20487;-55
2021/04/22 00:52:39;;;;;;;3.20;1.27;;;9.40;1.00;;;;;;5070701;28;20265;-56
2021/04/22 00:55:05;;;;;;;3.90;1.30;;;9.40;1.00;;;;;;5070383;28;20471;-56
2021/04/22 00:57:31;;;;;;;4.63;1.27;;;9.20;1.00;;;;;;5068728;28;20947;-56
2021/04/22 00:59:56;;;;;;;7.47;2.03;;;9.10;1.00;;;;;;5069252;28;20448;-55
2021/04/22 01:02:22;;;;;;;4.20;1.90;;;9.10;1.00;;;;;;5068660;28;20522;-55
2021/04/22 01:04:48;;;;;;;3.87;1.73;;;9.00;1.00;;;;;;5066907;28;20263;-56
2021/04/22 01:07:15;;;;;;;11.00;1.50;;;9.00;1.00;;;;;;5069675;28;20589;-55
2021/04/22 01:09:41;;;;;;;5.47;1.53;;;8.90;1.00;;;;;;5066038;28;20958;-56
2021/04/22 01:12:08;;;;;;;2.47;1.17;;;8.70;1.00;;;;;;5068842;28;20852;-56
2021/04/22 01:14:34;;;;;;;5.13;1.60;;;8.70;1.00;;;;;;5069410;28;20462;-56
2021/04/22 01:17:00;;;;;;;5.20;1.47;;;8.60;1.00;;;;;;5068714;28;20452;-56
2021/04/22 01:19:25;;;;;;;5.20;1.27;;;8.50;1.00;;;;;;5068668;28;20180;-56
2021/04/22 01:21:52;;;;;;;3.60;1.30;;;8.60;1.00;;;;;;5070168;28;20175;-56
2021/04/22 01:24:19;;;;;;;8.30;1.57;;;8.60;1.00;;;;;;5069957;28;20262;-55
2021/04/22 01:26:45;;;;;;;5.40;1.70;;;8.50;1.00;;;;;;5068620;28;20433;-57
2021/04/22 01:29:11;;;;;;;6.83;2.07;;;8.30;1.00;;;;;;5069607;28;20986;-56
2021/04/22 01:31:37;;;;;;;6.53;1.67;;;8.00;1.00;;;;;;5068197;28;20226;-55
2021/04/22 01:34:06;;;;;;;6.00;1.50;;;8.00;1.00;;;;;;5067904;28;20465;-57
2021/04/22 01:36:36;;;;;;;3.87;1.73;;;7.90;1.00;;;;;;5070509;28;20183;-57
2021/04/22 01:39:05;;;;;;;5.33;2.07;;;7.90;1.00;;;;;;5068216;28;20437;-55
2021/04/22 01:41:30;;;;;;;5.00;1.87;;;7.90;1.00;;;;;;5066812;28;20509;-56
2021/04/22 01:43:56;;;;;;;4.33;1.30;;;7.80;1.00;;;;;;5069862;28;20843;-56
2021/04/22 01:46:23;;;;;;;3.53;1.23;;;7.90;1.00;;;;;;5067036;28;20453;-56
2021/04/22 01:48:49;;;;;;;3.77;1.47;;;7.90;1.00;;;;;;5067375;28;21956;-57
2021/04/22 01:51:14;;;;;;;5.20;1.77;;;7.80;1.00;;;;;;5069090;28;20481;-57
2021/04/22 01:53:40;;;;;;;8.50;2.20;;;7.80;1.00;;;;;;5069661;28;20234;-56
2021/04/22 01:56:06;;;;;;;3.33;1.70;;;7.70;1.00;;;;;;5070152;28;20271;-57
2021/04/22 01:58:32;;;;;;;5.73;1.73;;;7.60;1.00;;;;;;5068897;28;20194;-54
2021/04/22 02:00:59;;;;;;;6.90;1.80;;;7.60;1.00;;;;;;5067337;28;20812;-57
2021/04/22 02:03:26;;;;;;;3.83;1.43;;;7.50;1.00;;;;;;5072529;28;20202;-57
2021/04/22 02:05:52;;;;;;;5.10;1.83;;;7.50;1.00;;;;;;5068710;28;20779;-54
2021/04/22 02:08:17;;;;;;;10.03;1.70;;;7.40;1.00;;;;;;5067047;28;20450;-55
2021/04/22 02:10:44;;;;;;;8.53;2.20;;;7.30;1.00;;;;;;5069725;28;20191;-57
2021/04/22 02:13:13;;;;;;;6.13;2.17;;;7.30;1.00;;;;;;5068112;28;20225;-55
2021/04/22 02:15:39;;;;;;;4.43;1.63;;;7.20;1.00;;;;;;5066612;28;20450;-56
2021/04/22 02:18:05;;;;;;;6.70;2.10;;;7.20;1.00;;;;;;5070399;28;20772;-57
2021/04/22 02:20:30;;;;;;;7.83;2.70;;;7.20;1.00;;;;;;5073289;28;20426;-56
2021/04/22 02:22:56;;;;;;;5.23;1.40;;;7.00;1.00;;;;;;5069925;28;20442;-57
2021/04/22 02:25:25;;;;;;;6.97;1.70;;;7.00;1.00;;;;;;5071829;28;20172;-56
2021/04/22 02:27:51;;;;;;;5.27;1.43;;;7.00;1.00;;;;;;5071868;28;20230;-55
2021/04/22 02:30:20;;;;;;;5.00;2.50;;;6.90;1.00;;;;;;5073186;28;20810;-55
2021/04/22 02:32:47;;;;;;;9.40;2.50;;;6.90;1.00;;;;;;5072736;28;20179;-54
2021/04/22 02:35:15;;;;;;;8.63;2.40;;;6.80;1.00;;;;;;5071843;28;20465;-56
2021/04/22 02:37:41;;;;;;;5.87;2.20;;;6.70;1.00;;;;;;5069383;28;20499;-55
2021/04/22 02:40:10;;;;;;;4.33;1.80;;;6.70;1.00;;;;;;5070556;28;20807;-56
2021/04/22 02:42:36;;;;;;;4.13;2.03;;;6.70;1.00;;;;;;5072730;28;20521;-55
2021/04/22 02:45:04;;;;;;;6.83;2.10;;;6.70;1.00;;;;;;5072346;28;20524;-56
2021/04/22 02:47:30;;;;;;;14.17;2.50;;;6.60;1.00;;;;;;5071408;28;20463;-56
2021/04/22 02:49:55;;;;;;;5.73;3.03;;;6.60;1.00;;;;;;5069425;28;20457;-56
2021/04/22 02:52:21;;;;;;;3.47;1.50;;;6.70;1.00;;;;;;5072858;28;20191;-56
2021/04/22 02:54:46;;;;;;;6.70;2.33;;;6.60;1.00;;;;;;5072550;28;20298;-55
2021/04/22 02:57:13;;;;;;;6.70;2.03;;;6.60;1.00;;;;;;5072656;28;20206;-56
2021/04/22 02:59:38;;;;;;;7.17;2.50;;;6.50;1.00;;;;;;5070752;28;20175;-56
2021/04/22 03:02:04;;;;;;;6.07;2.53;;;6.50;1.00;;;;;;5072279;28;20444;-57
2021/04/22 03:04:30;;;;;;;4.73;2.70;;;6.60;1.00;;;;;;5072693;28;20538;-57
2021/04/22 03:06:55;;;;;;;9.40;2.43;;;6.50;1.00;;;;;;5071797;28;20195;-55
2021/04/22 03:09:21;;;;;;;10.50;2.90;;;6.50;1.00;;;;;;5070806;28;20665;-55
2021/04/22 03:11:46;;;;;;;8.93;3.50;;;6.50;1.00;;;;;;5072247;28;20198;-55
2021/04/22 03:14:12;;;;;;;7.37;2.73;;;6.50;1.00;;;;;;5071740;28;20759;-56
2021/04/22 03:16:37;;;;;;;7.37;2.77;;;6.60;1.00;;;;;;5072694;28;20183;-59
2021/04/22 03:19:03;;;;;;;6.73;3.77;;;6.50;1.00;;;;;;5071794;28;20213;-56
2021/04/22 03:21:28;;;;;;;8.33;2.53;;;6.50;1.00;;;;;;5070028;28;20267;-55
2021/04/22 03:23:54;;;;;;;10.97;3.87;;;6.50;1.00;;;;;;5071884;28;20191;-55
2021/04/22 03:26:20;;;;;;;8.20;2.80;;;6.20;1.00;;;;;;5070079;28;20198;-56
2021/04/22 03:28:47;;;;;;;11.40;2.90;;;6.30;1.00;;;;;;5071556;28;20453;-54
2021/04/22 03:31:13;;;;;;;12.97;2.80;;;6.30;1.00;;;;;;5072096;28;20613;-55
2021/04/22 03:33:38;;;;;;;8.33;2.20;;;6.20;1.00;;;;;;5070183;28;20532;-54
2021/04/22 03:36:04;;;;;;;11.03;2.40;;;6.20;1.00;;;;;;5070836;28;20184;-55
2021/04/22 03:38:30;;;;;;;8.27;2.50;;;6.30;1.00;;;;;;5069275;28;20172;-56
2021/04/22 03:40:55;;;;;;;9.70;3.40;;;6.20;1.00;;;;;;5070322;28;20449;-56
2021/04/22 03:43:21;;;;;;;8.27;2.40;;;6.20;1.00;;;;;;5066549;28;20676;-57
2021/04/22 03:45:46;;;;;;;8.80;2.70;;;6.10;1.00;;;;;;5067436;28;20187;-56
2021/04/22 03:48:12;;;;;;;9.50;2.63;;;6.10;1.00;;;;;;5071023;28;20197;-55
2021/04/22 03:50:38;;;;;;;6.27;2.50;;;6.10;1.00;;;;;;5071914;28;20179;-56
2021/04/22 03:53:03;;;;;;;12.27;3.23;;;6.10;1.00;;;;;;5071389;28;20231;-56
2021/04/22 03:55:29;;;;;;;8.20;2.80;;;6.10;1.00;;;;;;5069681;28;20206;-57
2021/04/22 03:57:55;;;;;;;8.07;2.60;;;6.10;1.00;;;;;;5071883;28;20271;-56
2021/04/22 04:00:22;;;;;;;8.43;2.80;;;6.00;1.00;;;;;;5081786;28;20540;-56
2021/04/22 04:02:48;;;;;;;8.40;2.73;;;6.20;1.00;;;;;;5076245;28;20180;-56
2021/04/22 04:05:14;;;;;;;12.87;3.23;;;6.20;1.00;;;;;;5068092;28;20448;-55
2021/04/22 04:07:40;;;;;;;5.17;2.60;;;6.20;1.00;;;;;;5071638;28;20448;-55
2021/04/22 04:10:07;;;;;;;15.13;2.80;;;6.20;1.00;;;;;;5071285;28;20491;-56
2021/04/22 04:12:33;;;;;;;11.90;2.73;;;6.10;1.00;;;;;;5070800;28;20453;-55
2021/04/22 04:14:59;;;;;;;10.23;2.60;;;6.00;1.00;;;;;;5071204;28;21033;-59
2021/04/22 04:17:25;;;;;;;15.77;2.40;;;5.90;1.00;;;;;;5071034;28;20567;-61
2021/04/22 04:19:51;;;;;;;7.73;2.03;;;5.80;1.00;;;;;;5071281;28;20472;-60
2021/04/22 04:22:17;;;;;;;13.33;3.63;;;5.90;1.00;;;;;;5071109;28;20184;-59
2021/04/22 04:24:43;;;;;;;9.23;3.07;;;6.00;1.00;;;;;;5070490;28;20441;-54
2021/04/22 04:27:09;;;;;;;9.97;2.30;;;5.90;1.00;;;;;;5071207;28;20524;-57
2021/04/22 04:29:34;;;;;;;8.60;2.63;;;5.90;1.00;;;;;;5070568;28;20600;-56
2021/04/22 04:32:00;;;;;;;8.40;2.63;;;5.90;1.00;;;;;;5069272;28;20260;-56
2021/04/22 04:34:25;;;;;;;12.30;3.03;;;6.00;1.00;;;;;;5069167;28;20297;-56
2021/04/22 04:36:51;;;;;;;9.10;3.33;;;6.10;1.00;;;;;;5069518;28;20183;-56
2021/04/22 04:39:17;;;;;;;8.70;2.97;;;6.10;1.00;;;;;;5070333;28;20209;-56
2021/04/22 04:41:43;;;;;;;6.03;3.03;;;6.10;1.00;;;;;;5090036;28;20409;-56
2021/04/22 04:44:10;;;;;;;10.70;3.13;;;6.00;1.00;;;;;;5085999;28;20634;-55
2021/04/22 04:46:36;;;;;;;13.23;3.40;;;6.00;1.00;;;;;;5070463;28;20859;-56
2021/04/22 04:49:03;;;;;;;8.00;2.77;;;5.90;1.00;;;;;;5070615;28;20448;-53
2021/04/22 04:51:28;;;;;;;10.23;3.00;;;6.00;1.00;;;;;;5067358;28;20445;-58
2021/04/22 04:53:54;;;;;;;11.87;5.10;;;6.00;1.00;;;;;;5069889;28;20799;-55
2021/04/22 04:56:20;;;;;;;11.00;3.73;;;6.00;1.00;;;;;;5070705;28;20199;-58
2021/04/22 04:58:49;;;;;;;23.37;4.13;;;6.10;1.00;;;;;;5068471;28;20270;-59
2021/04/22 05:01:14;;;;;;;11.60;3.60;;;6.00;1.00;;;;;;5068045;28;20220;-55
2021/04/22 05:03:40;;;;;;;8.50;4.30;;;6.10;1.00;;;;;;5070246;28;20791;-55
2021/04/22 05:06:06;;;;;;;13.93;3.60;;;6.20;1.00;;;;;;5069838;28;20178;-56
2021/04/22 05:08:33;;;;;;;14.00;3.13;;;6.30;1.00;;;;;;5068463;28;20666;-56
2021/04/22 05:10:59;;;;;;;10.60;2.70;;;6.30;1.00;;;;;;5070694;28;20918;-57
2021/04/22 05:13:24;;;;;;;6.30;3.13;;;6.40;1.00;;;;;;5079451;28;20453;-56
2021/04/22 05:15:50;;;;;;;12.10;3.23;;;6.40;1.00;;;;;;5069654;28;20433;-57
2021/04/22 05:18:15;;;;;;;9.10;3.10;;;6.50;1.00;;;;;;5070351;28;20218;-56
2021/04/22 05:20:41;;;;;;;12.77;3.47;;;6.50;1.00;;;;;;5069987;28;20563;-57
2021/04/22 05:23:06;;;;;;;7.70;2.73;;;6.50;1.00;;;;;;5068542;28;20167;-57
2021/04/22 05:25:32;;;;;;;20.83;4.10;;;6.50;1.00;;;;;;5068110;28;20649;-58
2021/04/22 05:27:57;;;;;;;9.63;3.93;;;6.60;1.00;;;;;;5069074;28;20635;-57
2021/04/22 05:30:24;;;;;;;11.67;3.10;;;6.60;1.00;;;;;;5069820;28;20644;-57
2021/04/22 05:32:49;;;;;;;10.73;3.53;;;6.70;1.00;;;;;;5069849;28;20198;-58
2021/04/22 05:35:16;;;;;;;10.30;3.00;;;6.90;1.00;;;;;;5069871;28;20556;-58
2021/04/22 05:37:42;;;;;;;12.73;3.53;;;7.00;1.00;;;;;;5070038;28;20645;-57
2021/04/22 05:40:08;;;;;;;9.17;3.20;;;7.00;1.00;;;;;;5069070;28;20449;-57
2021/04/22 05:42:34;;;;;;;6.10;2.77;;;7.60;1.00;;;;;;5069651;28;20927;-57
2021/04/22 05:44:59;;;;;;;9.90;3.37;;;7.30;1.00;;;;;;5069709;28;20448;-56
2021/04/22 05:47:25;;;;;;;11.50;4.00;;;7.50;1.00;;;;;;5069586;28;20183;-56
2021/04/22 05:49:51;;;;;;;14.30;5.00;;;7.50;1.00;;;;;;5069924;28;20187;-56
2021/04/22 05:52:16;;;;;;;14.13;4.23;;;7.50;1.00;;;;;;5071010;28;20180;-56
2021/04/22 05:54:42;;;;;;;10.97;3.57;;;7.40;1.00;;;;;;5074041;28;20207;-56
2021/04/22 05:57:07;;;;;;;7.20;2.70;;;7.40;1.00;;;;;;5073568;28;20179;-55
2021/04/22 05:59:33;;;;;;;11.43;3.40;;;7.20;1.00;;;;;;5073961;28;20176;-55
2021/04/22 06:01:58;;;;;;;14.60;5.27;;;7.20;1.00;;;;;;5073158;28;20182;-56
2021/04/22 06:04:24;;;;;;;9.20;3.57;;;7.30;1.00;;;;;;5073800;28;20556;-56
2021/04/22 06:06:49;;;;;;;17.17;4.00;;;7.40;1.00;;;;;;5072462;28;20186;-57
2021/04/22 06:09:15;;;;;;;9.73;3.40;;;7.50;1.00;;;;;;5072268;28;20533;-56
2021/04/22 06:11:41;;;;;;;8.70;3.30;;;7.70;1.00;;;;;;5071789;28;20183;-57
2021/04/22 06:14:06;;;;;;;11.30;3.33;;;7.70;1.00;;;;;;5073200;28;20195;-55
2021/04/22 06:16:32;;;;;;;8.33;3.30;;;7.80;1.00;;;;;;5073726;28;20483;-57
2021/04/22 06:18:58;;;;;;;6.77;3.50;;;7.70;1.00;;;;;;5073980;28;20175;-56
2021/04/22 06:21:23;;;;;;;10.47;3.37;;;7.80;1.00;;;;;;5073279;28;20184;-56
2021/04/22 06:23:49;;;;;;;7.30;3.27;;;7.60;1.00;;;;;;5087921;28;20178;-57
2021/04/22 06:26:15;;;;;;;5.70;2.73;;;7.70;1.00;;;;;;5092790;28;20218;-57
2021/04/22 06:28:41;;;;;;;10.30;3.27;;;7.80;1.00;;;;;;5072613;28;20227;-56
2021/04/22 06:31:06;;;;;;;9.47;3.10;;;7.70;1.00;;;;;;5072887;28;20498;-56
2021/04/22 06:33:32;;;;;;;9.93;3.60;;;7.60;1.00;;;;;;5073425;28;20183;-57
2021/04/22 06:35:57;;;;;;;11.83;2.90;;;7.80;1.00;;;;;;5071392;28;20285;-55
2021/04/22 06:38:23;;;;;;;14.20;3.63;;;8.00;1.00;;;;;;5072402;28;20274;-56
2021/04/22 06:40:49;;;;;;;10.37;3.00;;;8.20;1.00;;;;;;5071806;28;20188;-57
2021/04/22 06:43:15;;;;;;;9.03;3.40;;;8.00;1.00;;;;;;5073017;28;20179;-57
2021/04/22 06:45:43;;;;;;;5.27;2.57;;;8.70;1.00;;;;;;5071324;28;20182;-57
2021/04/22 06:48:10;;;;;;;14.43;3.17;;;8.40;1.00;;;;;;5073102;28;20461;-56
2021/04/22 06:50:36;;;;;;;10.53;3.43;;;;;;;;;;5071139;28;20429;-57
2021/04/22 06:53:02;;;;;;;5.83;2.90;;;8.20;1.00;;;;;;5073075;28;20433;-56
2021/04/22 06:55:28;;;;;;;13.83;3.00;;;8.40;1.00;;;;;;5071266;28;20461;-55
2021/04/22 06:57:55;;;;;;;7.23;2.90;;;8.50;1.00;;;;;;5072535;28;20204;-56
2021/04/22 07:00:23;;;;;;;11.77;3.40;;;8.50;1.00;;;;;;5070962;28;20482;-57
2021/04/22 07:02:50;;;;;;;9.13;3.63;;;8.60;1.00;;;;;;5072308;28;20443;-57
2021/04/22 07:05:16;;;;;;;8.33;2.70;;;8.50;1.00;;;;;;5071844;28;20871;-55
2021/04/22 07:07:42;;;;;;;7.80;3.20;;;8.60;1.00;;;;;;5072334;28;20530;-57
2021/04/22 07:10:10;;;;;;;8.33;2.80;;;8.90;1.00;;;;;;5072764;28;20446;-56
2021/04/22 07:12:36;;;;;;;13.30;5.33;;;8.80;1.00;;;;;;5087290;28;20443;-56
2021/04/22 07:15:04;;;;;;;10.47;3.10;;;9.10;1.00;;;;;;5070808;28;20800;-55
2021/04/22 07:17:29;;;;;;;7.70;2.70;;;8.90;1.00;;;;;;5072049;28;20505;-57
2021/04/22 07:19:55;;;;;;;10.10;3.40;;;9.00;1.00;;;;;;5071917;28;20447;-55
2021/04/22 07:22:22;;;;;;;8.57;2.97;;;9.10;1.00;;;;;;5072592;28;20176;-57
2021/04/22 07:24:48;;;;;;;12.20;3.53;;;8.70;1.00;;;;;;5072360;28;20664;-56
2021/04/22 07:27:14;;;;;;;12.50;3.40;;;8.70;1.00;;;;;;5072533;28;20438;-56
2021/04/22 07:29:45;;;;;;;10.03;3.00;;;8.70;1.00;;;;;;5077870;28;20207;-56
2021/04/22 07:32:12;;;;;;;9.57;3.00;;;9.00;1.00;;;;;;5071429;28;20216;-57
2021/04/22 07:34:38;;;;;;;9.10;2.97;;;9.00;1.00;;;;;;5072400;28;20916;-57
2021/04/22 07:37:04;;;;;;;8.50;2.80;;;9.00;1.00;;;;;;5072323;28;20494;-55
2021/04/22 07:39:29;;;;;;;6.73;3.10;;;9.00;1.00;;;;;;5072437;28;20184;-56
2021/04/22 07:41:55;;;;;;;9.20;3.13;;;8.90;1.00;;;;;;5070160;28;20833;-57
2021/04/22 07:44:21;;;;;;;7.00;2.50;;;8.90;1.00;;;;;;5071682;28;20657;-55
2021/04/22 07:46:47;;;;;;;11.20;3.13;;;8.80;1.00;;;;;;5071099;28;20190;-55
2021/04/22 07:49:12;;;;;;;9.40;3.17;;;8.90;1.00;;;;;;5071770;28;20185;-58
2021/04/22 07:51:38;;;;;;;7.73;3.67;;;8.80;1.00;;;;;;5072157;28;20487;-57
2021/04/22 07:54:04;;;;;;;7.67;3.40;;;8.80;1.00;;;;;;5071470;28;20220;-55
2021/04/22 07:56:29;;;;;;;10.00;3.30;;;9.30;1.00;;;;;;5083688;28;20556;-58
2021/04/22 07:58:55;;;;;;;7.90;3.03;;;9.30;1.00;;;;;;5073148;28;20459;-55
2021/04/22 08:01:21;;;;;;;15.00;3.40;;;9.20;1.00;;;;;;5053560;28;20240;-58
2021/04/22 08:03:46;;;;;;;10.20;3.57;;;9.40;1.00;;;;;;5071834;28;20264;-57
2021/04/22 08:06:13;;;;;;;8.80;3.53;;;9.20;1.00;;;;;;5071126;28;20443;-56
2021/04/22 08:08:39;;;;;;;6.97;3.07;;;9.20;1.00;;;;;;5070311;28;20225;-56
2021/04/22 08:11:05;;;;;;;8.03;2.50;;;9.30;1.00;;;;;;5071382;28;20444;-56
2021/04/22 08:13:31;;;;;;;7.30;2.93;;;9.50;1.00;;;;;;5071302;28;20537;-56
2021/04/22 08:15:57;;;;;;;8.90;2.43;;;9.40;1.00;;;;;;5071455;28;20447;-57
2021/04/22 08:18:26;;;;;;;8.00;3.07;;;9.00;1.00;;;;;;5073321;28;20810;-57
2021/04/22 08:20:52;;;;;;;7.27;3.20;;;8.90;1.00;;;;;;5073799;28;20442;-56
2021/04/22 08:23:18;;;;;;;11.07;2.80;;;9.00;1.00;;;;;;5071025;28;20795;-57
2021/04/22 08:25:47;;;;;;;7.73;3.37;;;9.00;1.00;;;;;;5071092;28;20444;-57
2021/04/22 08:28:15;;;;;;;10.30;5.20;;;8.90;1.00;;;;;;5069534;28;20873;-56
2021/04/22 08:31:00;;;;;;;9.47;2.40;;;8.70;1.00;;;;;;5068528;28;20509;-56
2021/04/22 08:33:27;;;;;;;6.33;2.77;;;8.60;1.00;;;;;;5069244;28;20445;-56
2021/04/22 08:35:53;;;;;;;7.20;2.47;;;8.70;1.00;;;;;;5071162;28;20574;-57
2021/04/22 08:38:20;;;;;;;7.63;2.90;;;9.00;1.00;;;;;;5070100;28;20552;-57
2021/04/22 08:40:47;;;;;;;12.00;2.90;;;9.50;1.00;;;;;;5070225;28;20431;-57
2021/04/22 08:43:13;;;;;;;8.10;2.00;;;9.50;1.00;;;;;;5085859;28;20446;-58
2021/04/22 08:45:41;;;;;;;6.93;3.30;;;9.30;1.00;;;;;;5083980;28;20932;-60
2021/04/22 08:48:07;;;;;;;6.90;2.53;;;9.30;1.00;;;;;;5068313;28;20953;-58
2021/04/22 08:50:34;;;;;;;6.57;2.40;;;9.50;1.00;;;;;;5070486;28;20556;-57
2021/04/22 08:53:04;;;;;;;8.52;3.15;;;10.00;1.00;;;;;;5067789;28;20443;-56
2021/04/22 08:55:32;;;;;;;11.90;3.37;;;10.00;1.00;;;;;;5069119;28;20206;-56
2021/04/22 08:58:01;;;;;;;6.77;2.80;;;10.10;1.00;;;;;;5070772;28;20444;-56
2021/04/22 09:00:30;;;;;;;14.83;2.63;;;10.40;1.00;;;;;;5069357;28;20998;-66
2021/04/22 09:02:55;;;;;;;10.53;3.17;;;10.30;1.00;;;;;;5068466;28;20452;-62
2021/04/22 09:05:21;;;;;;;6.10;3.17;;;10.60;1.00;;;;;;5070109;28;20502;-63
2021/04/22 09:07:47;;;;;;;5.47;2.63;;;10.80;1.00;;;;;;5070243;28;20192;-63
2021/04/22 09:10:17;;;;;;;6.33;2.87;;;10.80;1.00;;;;;;5070492;28;20536;-62
2021/04/22 09:12:53;;;;;;;9.37;2.80;;;10.80;1.00;;;;;;5070435;28;20443;-61
2021/04/22 09:15:19;;;;;;;7.90;3.00;;;10.50;1.00;;;;;;5070240;28;20475;-61
2021/04/22 09:17:54;;;;;;;7.33;2.90;;;10.20;1.00;;;;;;5070383;28;20977;-62
2021/04/22 09:20:27;;;;;;;6.87;2.87;;;10.10;1.00;;;;;;5090560;28;20429;-61
2021/04/22 09:22:53;;;;;;;7.20;2.50;;;10.20;1.00;;;;;;5066837;28;20517;-57
2021/04/22 09:25:22;;;;;;;7.57;3.00;;;10.30;1.00;;;;;;5066373;28;20788;-59
2021/04/22 09:27:49;;;;;;;7.73;3.07;;;10.30;1.00;;;;;;5069418;28;20694;-57
2021/04/22 09:30:15;;;;;;;6.60;2.40;;;10.40;1.00;;;;;;5067729;28;20937;-59
2021/04/22 09:32:41;;;;;;;9.00;3.27;;;10.00;1.00;;;;;;5071126;28;20479;-58
2021/04/22 09:35:09;;;;;;;7.77;2.40;;;9.80;1.00;;;;;;5069936;28;20475;-57
2021/04/22 09:37:50;;;;;;;7.70;2.60;;;10.20;1.00;;;;;;5070333;28;20960;-58
2021/04/22 09:40:45;;;;;;;6.33;2.50;;;10.20;1.00;;;;;;5069910;28;20529;-58
2021/04/22 09:43:14;;;;;;;5.67;1.90;;;10.30;1.00;;;;;;5072519;28;20519;-58
2021/04/22 09:45:43;;;;;;;4.27;2.20;;;10.90;1.00;;;;;;5069117;28;20433;-58
2021/04/22 09:48:18;;;;;;;4.33;2.00;;;10.90;1.00;;;;;;5072431;28;20512;-59
2021/04/22 09:50:44;;;;;;;6.80;2.80;;;10.80;1.00;;;;;;5075874;28;20438;-59
2021/04/22 09:53:14;;;;;;;5.10;3.63;;;10.60;1.00;;;;;;5072901;28;20440;-59
2021/04/22 09:55:41;;;;;;;6.83;2.70;;;10.60;1.00;;;;;;5072246;28;20500;-59
2021/04/22 09:58:08;;;;;;;9.60;2.70;;;10.60;1.00;;;;;;5067774;28;20472;-60
2021/04/22 10:00:34;;;;;;;9.43;2.70;;;10.90;1.00;;;;;;5077834;28;20527;-58
2021/04/22 10:03:04;;;;;;;6.77;2.40;;;10.80;1.00;;;;;;5074584;28;20430;-59
2021/04/22 10:05:32;;;;;;;6.87;2.20;;;10.80;1.00;;;;;;5080019;28;20925;-60
2021/04/22 10:08:15;;;;;;;4.67;2.60;;;11.00;1.00;;;;;;5051928;28;20445;-59
2021/04/22 10:11:03;;;;;;;10.17;3.33;;;10.90;1.00;;;;;;5073732;28;20501;-59
2021/04/22 10:13:41;;;;;;;5.13;2.50;;;10.70;1.00;;;;;;5067374;28;20452;-59
2021/04/22 10:16:06;;;;;;;6.87;3.00;;;10.40;1.00;;;;;;5067355;28;20436;-59
2021/04/22 10:18:40;;;;;;;7.33;2.10;;;10.00;1.00;;;;;;5072224;28;20440;-58
2021/04/22 10:21:06;;;;;;;9.50;2.60;;;10.40;1.00;;;;;;5070313;28;20178;-60
2021/04/22 10:23:32;;;;;;;4.10;2.17;;;10.70;1.00;;;;;;5077264;28;20533;-60
2021/04/22 10:25:58;;;;;;;5.43;2.10;;;10.90;1.00;;;;;;5080882;28;20185;-60
2021/04/22 10:28:24;;;;;;;5.00;3.07;;;10.90;1.00;;;;;;5081113;28;20466;-58
2021/04/22 10:30:52;;;;;;;12.20;3.00;;;10.80;1.00;;;;;;5088667;28;20207;-60
2021/04/22 10:33:19;;;;;;;8.50;3.13;;;10.70;1.00;;;;;;5073060;28;20448;-59
2021/04/22 10:35:46;;;;;;;10.50;2.87;;;10.60;1.00;;;;;;5072011;28;20466;-58
2021/04/22 10:38:13;;;;;;;11.83;3.87;;;13.00;1.00;;;;;;5068748;28;20448;-59
2021/04/22 10:40:41;;;;;;;7.90;2.97;;;11.10;1.00;;;;;;5072589;28;20794;-59
2021/04/22 10:43:08;;;;;;;4.50;2.60;;;11.10;1.00;;;;;;5083281;28;20437;-59
2021/04/22 10:45:37;;;;;;;6.90;2.90;;;11.10;1.00;;;;;;5080894;28;20763;-59
2021/04/22 10:48:04;;;;;;;6.23;2.93;;;11.10;1.00;;;;;;5080418;28;20993;-58
2021/04/22 10:50:34;;;;;;;6.10;2.80;;;11.10;1.00;;;;;;5076865;28;20439;-58
2021/04/22 10:53:01;;;;;;;8.33;3.30;;;11.00;1.00;;;;;;5075602;28;20807;-60
2021/04/22 10:55:32;;;;;;;9.37;3.20;;;10.90;1.00;;;;;;5076868;28;20489;-59
2021/04/22 10:58:37;;;;;;;8.47;3.37;;;10.60;1.00;;;;;;5092444;28;20913;-60
2021/04/22 11:01:05;;;;;;;7.40;3.07;;;10.70;1.00;;;;;;5088586;28;20454;-58
2021/04/22 11:03:38;;;;;;;4.93;2.53;;;10.80;1.00;;;;;;5080846;28;20446;-59
2021/04/22 11:06:07;;;;;;;8.60;2.80;;;10.80;1.00;;;;;;5074352;28;20444;-60
2021/04/22 11:08:41;;;;;;;7.13;2.73;;;11.00;1.00;;;;;;5080005;28;20529;-60
2021/04/22 11:11:17;;;;;;;10.60;3.37;;;11.60;1.00;;;;;;5081162;28;20942;-58
2021/04/22 11:13:44;;;;;;;8.47;3.83;;;12.00;1.00;;;;;;5072074;28;20449;-59
2021/04/22 11:16:09;;;;;;;7.47;3.03;;;11.70;1.00;;;;;;5075844;28;20633;-60
2021/04/22 11:18:46;;;;;;;7.00;3.13;;;11.10;1.00;;;;;;5072266;28;20464;-59
2021/04/22 11:21:21;;;;;;;5.17;2.73;;;11.20;1.00;;;;;;5079254;28;20186;-57
2021/04/22 11:23:47;;;;;;;8.43;3.20;;;11.50;1.00;;;;;;5075179;28;20447;-57
2021/04/22 11:26:19;;;;;;;6.07;4.10;;;11.40;1.00;;;;;;5072345;28;20452;-58
2021/04/22 11:28:45;;;;;;;5.57;3.20;;;11.50;1.00;;;;;;5080233;28;20528;-58
2021/04/22 11:31:14;;;;;;;6.77;3.33;;;12.00;1.00;;;;;;5083861;28;20527;-58
2021/04/22 11:33:40;;;;;;;5.63;3.47;;;11.80;1.00;;;;;;5092513;28;20216;-58
2021/04/22 11:36:14;;;;;;;6.50;3.70;;;11.90;1.00;;;;;;5070701;28;20537;-60
2021/04/22 11:38:50;;;;;;;6.80;3.20;;;12.10;1.00;;;;;;5074818;28;20496;-59
2021/04/22 11:41:16;;;;;;;7.40;3.13;;;12.10;1.00;;;;;;5085182;28;20436;-59
2021/04/22 11:43:42;;;;;;;6.10;2.80;;;11.60;1.00;;;;;;5092612;28;20432;-58
2021/04/22 11:46:07;;;;;;;5.03;3.03;;;11.50;1.00;;;;;;5080866;28;20189;-59
2021/04/22 11:48:38;;;;;;;4.13;2.47;;;11.40;1.00;;;;;;5080866;28;20279;-57
2021/04/22 11:51:05;;;;;;;6.60;3.13;;;11.50;1.00;;;;;;5086691;28;20178;-59
2021/04/22 11:53:35;;;;;;;6.13;3.30;;;11.60;1.00;;;;;;5074537;28;20443;-61
2021/04/22 11:56:02;;;;;;;7.17;3.60;;;11.80;1.00;;;;;;5079249;28;20581;-59
2021/04/22 11:58:28;;;;;;;6.90;2.90;;;11.70;1.00;;;;;;5086301;28;20448;-58
2021/04/22 12:01:01;;;;;;;9.00;3.83;;;11.50;1.00;;;;;;5090435;28;20440;-58
2021/04/22 12:03:32;;;;;;;4.67;3.00;;;11.90;1.00;;;;;;5070977;28;20463;-58
2021/04/22 12:06:00;;;;;;;9.03;3.40;;;12.00;1.00;;;;;;5074175;28;20503;-60
2021/04/22 12:08:37;;;;;;;9.37;3.40;;;12.20;1.00;;;;;;5075719;28;20439;-58
2021/04/22 12:11:06;;;;;;;7.53;3.00;;;12.40;1.00;;;;;;5075962;28;20444;-58
2021/04/22 12:13:34;;;;;;;5.90;2.90;;;11.70;1.00;;;;;;5077097;28;20452;-58
2021/04/22 12:16:02;;;;;;;8.23;3.23;;;11.60;1.00;;;;;;5077725;28;20439;-58
2021/04/22 12:18:30;;;;;;;5.27;2.50;;;11.30;1.00;;;;;;5071158;28;20902;-58
2021/04/22 12:21:12;;;;;;;6.03;3.20;;;11.20;1.00;;;;;;5070967;28;20546;-58
2021/04/22 12:23:48;;;;;;;7.13;3.77;;;11.20;1.00;;;;;;5070873;28;20476;-60
2021/04/22 12:26:22;;;;;;;4.03;2.57;;;11.30;1.00;;;;;;5068686;28;20455;-59
2021/04/22 12:29:07;;;;;;;5.27;2.90;;;11.30;1.00;;;;;;5070438;28;20492;-58
2021/04/22 12:31:35;;;;;;;5.57;2.97;;;11.40;1.00;;;;;;5069965;28;20571;-59
2021/04/22 12:34:11;;;;;;;5.93;3.03;;;11.50;1.00;;;;;;5071578;28;21325;-60
2021/04/22 12:36:49;;;;;;;5.43;2.30;;;11.70;1.00;;;;;;5080124;28;20448;-60
2021/04/22 12:39:23;;;;;;;6.70;3.00;;;11.70;1.00;;;;;;5082208;28;20965;-58
2021/04/22 12:41:48;;;;;;;11.80;3.03;;;11.80;1.00;;;;;;5069528;28;20512;-60
2021/04/22 12:44:19;;;;;;;6.80;4.17;;;11.70;1.00;;;;;;5075635;28;20539;-58
2021/04/22 12:46:44;;;;;;;6.80;2.97;;;11.70;1.00;;;;;;5080484;28;20274;-59
2021/04/22 12:49:16;;;;;;;6.50;2.80;;;11.80;1.00;;;;;;5091302;28;20427;-60
2021/04/22 12:51:41;;;;;;;6.60;2.40;;;11.50;1.00;;;;;;5082044;28;20180;-57
2021/04/22 12:54:07;;;;;;;5.53;2.40;;;11.20;1.00;;;;;;5069073;28;20465;-58
2021/04/22 12:56:35;;;;;;;4.30;2.17;;;11.30;1.00;;;;;;5070500;28;20180;-58
2021/04/22 12:59:06;;;;;;;13.27;3.17;;;11.30;1.00;;;;;;5070731;28;20247;-58
2021/04/22 13:01:32;;;;;;;4.43;2.30;;;11.50;1.00;;;;;;5073802;28;20933;-59
2021/04/22 13:04:01;;;;;;;7.10;2.97;;;11.80;1.00;;;;;;5081647;28;20464;-58